Time;durP1;ratioP1;P1;durP2;ratioP2;P2;SDS_P1;SDS_P2;PMS_P1;PMS_P2;Temp;Humidity;BMP_temperature;BMP_pressure;BME280_temperature;BME280_humidity;BME280_pressure;Samples;Min_cycle;Max_cycle;Signal;HPM_P1;HPM_P2
2023/02/23 00:01:48;;;;;;;7.68;1.17;;;4.90;99.90;;;;;;6219970;23;20439;-90
2023/02/23 00:04:14;;;;;;;3.55;0.88;;;4.90;99.90;;;;;;6219038;23;20012;-90
2023/02/23 00:06:40;;;;;;;8.05;1.52;;;4.90;99.90;;;;;;6219570;23;20007;-91
2023/02/23 00:09:10;;;;;;;4.03;1.45;;;5.00;99.90;;;;;;6218983;23;20019;-90
2023/02/23 00:11:36;;;;;;;3.30;1.02;;;4.90;99.90;;;;;;6218868;23;20015;-91
2023/02/23 00:14:02;;;;;;;11.73;2.50;;;4.90;99.90;;;;;;6218771;23;20004;-90
2023/02/23 00:16:28;;;;;;;1.83;1.23;;;5.00;99.90;;;;;;6219440;23;20012;-91
2023/02/23 00:18:59;;;;;;;4.30;1.45;;;4.90;99.90;;;;;;6219282;23;20000;-90
2023/02/23 00:21:34;;;;;;;;;;;5.00;99.90;;;;;;6219844;23;20004;-92
2023/02/23 00:24:07;;;;;;;8.57;0.98;;;5.00;99.90;;;;;;6219716;23;19982;-90
2023/02/23 00:26:35;;;;;;;4.10;1.00;;;5.00;99.90;;;;;;6246420;23;20011;-91
2023/02/23 00:29:03;;;;;;;5.60;1.10;;;5.00;99.90;;;;;;6219139;23;20015;-91
2023/02/23 00:31:29;;;;;;;8.23;0.98;;;5.00;99.90;;;;;;6219799;23;20012;-93
2023/02/23 00:33:58;;;;;;;8.70;1.40;;;5.00;99.90;;;;;;6219228;23;20035;-94
2023/02/23 00:36:30;;;;;;;5.30;1.25;;;5.00;99.90;;;;;;6219430;23;20000;-92
2023/02/23 00:38:59;;;;;;;6.97;1.30;;;5.00;99.90;;;;;;6218767;23;20008;-91
2023/02/23 00:41:27;;;;;;;6.70;1.38;;;4.90;99.90;;;;;;6219117;23;20416;-92
2023/02/23 00:43:54;;;;;;;3.80;1.10;;;4.90;99.90;;;;;;6218373;23;20102;-92
2023/02/23 00:46:22;;;;;;;5.80;1.50;;;4.90;99.90;;;;;;6218573;23;20054;-90
2023/02/23 00:48:49;;;;;;;3.00;1.17;;;4.90;99.90;;;;;;6218974;23;20008;-90
2023/02/23 00:51:17;;;;;;;4.43;1.27;;;4.90;99.90;;;;;;6220992;23;20007;-90
2023/02/23 00:53:43;;;;;;;7.82;1.20;;;4.90;99.90;;;;;;6221445;23;20106;-90
2023/02/23 00:56:11;;;;;;;4.90;1.30;;;4.90;99.90;;;;;;6220469;23;20000;-90
2023/02/23 00:58:37;;;;;;;8.82;1.58;;;4.80;99.90;;;;;;6219454;23;20151;-92
2023/02/23 01:01:11;;;;;;;6.15;1.48;;;4.80;99.90;;;;;;6219189;23;20015;-92
2023/02/23 01:03:40;;;;;;;2.35;1.02;;;4.80;99.90;;;;;;6218733;23;20008;-90
2023/02/23 01:06:08;;;;;;;2.38;1.20;;;4.80;99.90;;;;;;6218326;23;20007;-91
2023/02/23 01:08:38;;;;;;;4.40;1.15;;;4.90;99.90;;;;;;6218385;23;20085;-90
2023/02/23 01:11:10;;;;;;;4.93;1.05;;;4.90;99.90;;;;;;6218486;23;20456;-91
2023/02/23 01:13:36;;;;;;;5.32;1.65;;;4.90;99.90;;;;;;6218646;23;20004;-92
2023/02/23 01:16:11;;;;;;;4.63;1.40;;;4.90;99.90;;;;;;6218614;23;20321;-92
2023/02/23 01:18:38;;;;;;;7.40;2.70;;;4.90;99.90;;;;;;6218711;23;20011;-91
2023/02/23 01:21:05;;;;;;;5.95;2.42;;;4.90;99.90;;;;;;6219228;23;20015;-91
2023/02/23 01:23:31;;;;;;;8.40;1.85;;;4.90;99.90;;;;;;6218697;23;20067;-91
2023/02/23 01:25:57;;;;;;;8.05;1.83;;;4.90;99.90;;;;;;6218880;23;20417;-92
2023/02/23 01:28:23;;;;;;;7.18;1.30;;;4.90;99.90;;;;;;6219227;23;20004;-91
2023/02/23 01:30:48;;;;;;;8.75;1.65;;;4.90;99.90;;;;;;6219053;23;20285;-92
2023/02/23 01:33:14;;;;;;;10.85;1.73;;;4.90;99.90;;;;;;6218746;23;20028;-92
2023/02/23 01:35:40;;;;;;;7.70;1.58;;;5.00;99.90;;;;;;6219222;23;20060;-92
2023/02/23 01:38:06;;;;;;;8.15;1.33;;;5.00;99.90;;;;;;6218739;23;20004;-91
2023/02/23 01:40:35;;;;;;;9.38;1.83;;;5.00;99.90;;;;;;6218725;23;20008;-91
2023/02/23 01:43:24;;;;;;;6.95;1.40;;;5.00;99.90;;;;;;6246066;23;20083;-91
2023/02/23 01:45:53;;;;;;;7.20;0.88;;;5.00;99.90;;;;;;6219304;23;20030;-91
2023/02/23 01:48:27;;;;;;;6.53;2.22;;;5.00;99.90;;;;;;6245199;23;20024;-91
2023/02/23 01:50:56;;;;;;;5.18;1.30;;;5.00;99.90;;;;;;6229800;23;20012;-89
2023/02/23 01:53:24;;;;;;;6.07;1.33;;;5.00;99.90;;;;;;6225599;23;20411;-89
2023/02/23 01:55:53;;;;;;;6.57;1.10;;;5.00;99.90;;;;;;6219079;23;20451;-90
2023/02/23 01:58:22;;;;;;;7.38;1.25;;;5.00;99.90;;;;;;6218766;23;20012;-91
2023/02/23 02:01:01;;;;;;;6.60;0.98;;;5.00;99.90;;;;;;6219380;23;20412;-91
2023/02/23 02:03:59;;;;;;;5.35;1.13;;;5.00;99.90;;;;;;6217139;23;20016;-90
2023/02/23 02:06:27;;;;;;;4.85;1.40;;;5.00;99.90;;;;;;6218534;23;20011;-92
2023/02/23 02:09:06;;;;;;;5.25;0.90;;;5.00;99.90;;;;;;6218850;23;20538;-92
2023/02/23 02:11:37;;;;;;;2.03;0.70;;;5.00;99.90;;;;;;6218544;23;20016;-93
2023/02/23 02:14:16;;;;;;;7.55;1.00;;;5.00;99.90;;;;;;6218999;23;20004;-92
2023/02/23 02:17:09;;;;;;;0.88;0.60;;;5.00;99.90;;;;;;6218845;23;20008;-91
2023/02/23 02:19:59;;;;;;;2.40;0.63;;;4.90;99.90;;;;;;6218675;23;20031;-93
2023/02/23 02:22:37;;;;;;;2.58;1.17;;;4.90;99.90;;;;;;6218000;23;20004;-91
2023/02/23 02:25:41;;;;;;;1.48;0.68;;;4.90;99.90;;;;;;6217854;23;20035;-91
2023/02/23 02:28:40;;;;;;;2.47;0.80;;;4.90;99.90;;;;;;6220598;23;20050;-91
2023/02/23 02:31:55;;;;;;;8.15;1.27;;;4.90;99.90;;;;;;6221174;23;20008;-92
2023/02/23 02:35:09;;;;;;;5.40;1.38;;;4.90;99.90;;;;;;6205091;23;20677;-91
2023/02/23 02:37:47;;;;;;;7.05;1.80;;;4.90;99.90;;;;;;6071991;23;20006;-93
2023/02/23 02:40:31;;;;;;;4.85;1.42;;;4.90;99.90;;;;;;6072607;23;20086;-91
2023/02/23 02:43:10;;;;;;;6.22;1.45;;;4.90;99.90;;;;;;6072306;23;20033;-91
2023/02/23 02:45:45;;;;;;;16.02;2.20;;;4.90;99.90;;;;;;6097346;23;20017;-91
2023/02/23 02:48:15;;;;;;;6.18;1.92;;;4.90;99.90;;;;;;6074029;23;20017;-92
2023/02/23 02:50:49;;;;;;;8.05;1.50;;;5.00;99.90;;;;;;6077102;23;20006;-93
2023/02/23 02:53:39;;;;;;;8.60;1.38;;;4.90;99.90;;;;;;6081756;23;20003;-93
2023/02/23 02:56:07;;;;;;;7.07;1.42;;;4.90;99.90;;;;;;6086042;23;20387;-93
2023/02/23 02:58:34;;;;;;;3.05;1.48;;;4.90;99.90;;;;;;6121651;23;20006;-91
2023/02/23 04:19:35;;;;;;;18.08;2.55;;;4.30;99.90;;;;;;6246599;23;20065;-92
2023/02/23 04:22:01;;;;;;;27.75;3.25;;;4.30;99.90;;;;;;6219395;23;20083;-92
2023/02/23 04:24:26;;;;;;;20.58;2.70;;;4.30;99.90;;;;;;6218653;23;20016;-91
2023/02/23 04:26:52;;;;;;;22.77;3.35;;;4.20;99.90;;;;;;6218692;23;20704;-92
2023/02/23 04:29:18;;;;;;;16.48;2.75;;;4.20;99.90;;;;;;6220209;23;20000;-92
2023/02/23 04:31:43;;;;;;;24.15;3.22;;;4.20;99.90;;;;;;6219062;23;20061;-89
2023/02/23 04:34:09;;;;;;;14.80;2.50;;;4.20;99.90;;;;;;6245446;23;20031;-91
2023/02/23 04:36:35;;;;;;;16.92;2.55;;;4.20;99.90;;;;;;6218667;23;20412;-92
2023/02/23 04:39:01;;;;;;;17.63;2.38;;;4.20;99.90;;;;;;6218970;23;20011;-91
2023/02/23 04:41:26;;;;;;;17.88;2.30;;;4.20;99.90;;;;;;6219138;23;20064;-92
2023/02/23 04:43:52;;;;;;;19.67;2.60;;;4.20;99.90;;;;;;6219532;23;20016;-93
2023/02/23 04:46:17;;;;;;;19.00;3.00;;;4.20;99.90;;;;;;6220039;23;20099;-94
2023/02/23 04:48:43;;;;;;;21.92;2.30;;;4.20;99.90;;;;;;6219371;23;20058;-93
2023/02/23 04:51:09;;;;;;;15.20;2.28;;;4.20;99.90;;;;;;6218612;23;20008;-93
2023/02/23 04:53:34;;;;;;;24.00;2.72;;;4.20;99.90;;;;;;6218909;23;20004;-93
2023/02/23 04:56:00;;;;;;;20.63;2.55;;;4.20;99.90;;;;;;6218848;23;20004;-92
2023/02/23 04:58:26;;;;;;;15.20;2.80;;;4.20;99.90;;;;;;6227908;23;20070;-91
2023/02/23 05:00:51;;;;;;;16.75;2.28;;;4.20;99.90;;;;;;6231471;23;19999;-91
2023/02/23 05:03:17;;;;;;;20.50;2.65;;;4.20;99.90;;;;;;6223449;23;20051;-92
2023/02/23 05:05:43;;;;;;;12.15;2.10;;;4.20;99.90;;;;;;6219222;23;20004;-93
2023/02/23 05:08:09;;;;;;;20.65;2.88;;;4.10;99.90;;;;;;6218767;23;20011;-92
2023/02/23 05:10:35;;;;;;;16.08;2.40;;;4.00;99.90;;;;;;6219445;23;20012;-92
2023/02/23 05:13:01;;;;;;;20.42;2.60;;;4.00;99.90;;;;;;6218817;23;20015;-93
2023/02/23 05:15:27;;;;;;;13.25;2.15;;;4.00;99.90;;;;;;6219429;23;20064;-91
2023/02/23 05:17:54;;;;;;;22.20;2.45;;;4.00;99.90;;;;;;6218638;23;20008;-92
2023/02/23 05:20:20;;;;;;;15.43;2.17;;;3.90;99.90;;;;;;6219043;23;20100;-91
2023/02/23 05:22:46;;;;;;;25.67;4.45;;;3.90;99.90;;;;;;6218939;23;20355;-92
2023/02/23 05:25:12;;;;;;;23.75;2.72;;;3.90;99.90;;;;;;6219305;23;20008;-92
2023/02/23 05:27:38;;;;;;;19.55;2.47;;;3.80;99.90;;;;;;6219362;23;20089;-91
2023/02/23 05:30:06;;;;;;;18.83;1.70;;;3.80;99.90;;;;;;6219454;23;20036;-92
2023/02/23 05:32:32;;;;;;;19.45;2.22;;;3.80;99.90;;;;;;6244482;23;20003;-92
2023/02/23 05:34:58;;;;;;;10.13;1.70;;;3.80;99.90;;;;;;6218318;23;20004;-92
2023/02/23 05:37:23;;;;;;;11.02;1.50;;;3.70;99.90;;;;;;6217949;23;20004;-92
2023/02/23 05:39:49;;;;;;;15.77;2.63;;;3.70;99.90;;;;;;6218260;23;20447;-93
2023/02/23 05:42:15;;;;;;;12.15;2.03;;;3.70;99.90;;;;;;6218487;23;20127;-92
2023/02/23 05:44:40;;;;;;;15.38;2.13;;;3.60;99.90;;;;;;6218488;23;20014;-91
2023/02/23 05:47:06;;;;;;;11.32;1.95;;;3.60;99.90;;;;;;6218278;23;20103;-92
2023/02/23 05:49:32;;;;;;;11.52;1.40;;;3.60;99.90;;;;;;6218935;23;20054;-90
2023/02/23 05:51:57;;;;;;;17.85;1.60;;;3.60;99.90;;;;;;6219147;23;20309;-91
2023/02/23 05:54:23;;;;;;;10.13;1.35;;;3.60;99.90;;;;;;6245563;23;20234;-92
2023/02/23 05:56:49;;;;;;;12.75;1.88;;;3.60;99.90;;;;;;6219579;23;20128;-92
2023/02/23 05:59:16;;;;;;;13.55;1.67;;;3.60;99.90;;;;;;6219255;23;20327;-92
2023/02/23 06:01:41;;;;;;;15.52;2.45;;;3.60;99.90;;;;;;6218613;23;20004;-91
2023/02/23 06:04:07;;;;;;;8.05;1.75;;;3.60;99.90;;;;;;6218134;23;20018;-92
2023/02/23 06:06:33;;;;;;;15.00;2.60;;;3.60;99.90;;;;;;6217262;23;20035;-91
2023/02/23 06:08:59;;;;;;;12.20;2.00;;;3.60;99.90;;;;;;6218731;23;20015;-91
2023/02/23 06:11:24;;;;;;;19.83;2.17;;;3.60;99.90;;;;;;6217766;23;20023;-91
2023/02/23 06:13:51;;;;;;;11.35;2.00;;;3.60;99.90;;;;;;6217999;23;20137;-91
2023/02/23 06:16:16;;;;;;;11.77;1.40;;;3.60;99.90;;;;;;6217151;23;20027;-91
2023/02/23 06:18:42;;;;;;;18.73;2.03;;;3.50;99.90;;;;;;6217856;23;20035;-92
2023/02/23 06:21:08;;;;;;;8.70;1.67;;;3.50;99.90;;;;;;6218777;23;20008;-91
2023/02/23 06:23:33;;;;;;;10.38;1.50;;;3.50;99.90;;;;;;6219506;23;20016;-92
2023/02/23 06:25:59;;;;;;;13.07;1.80;;;3.50;99.90;;;;;;6219315;23;20075;-92
2023/02/23 06:28:26;;;;;;;10.30;1.70;;;3.50;99.90;;;;;;6218975;23;20008;-91
2023/02/23 06:30:52;;;;;;;16.00;3.28;;;3.40;99.90;;;;;;6218549;23;20011;-91
2023/02/23 06:33:18;;;;;;;15.50;1.98;;;3.40;99.90;;;;;;6219325;23;20012;-91
2023/02/23 06:35:45;;;;;;;13.10;2.33;;;3.40;99.90;;;;;;6217518;23;20062;-92
2023/02/23 06:38:10;;;;;;;11.55;1.98;;;3.30;99.90;;;;;;6244812;23;20356;-91
2023/02/23 06:40:37;;;;;;;17.80;2.30;;;3.30;99.90;;;;;;6218490;23;20007;-92
2023/02/23 06:43:04;;;;;;;15.07;2.30;;;3.30;99.90;;;;;;6217886;23;20035;-91
2023/02/23 06:45:30;;;;;;;14.43;2.97;;;3.30;99.90;;;;;;6216988;23;20012;-91
2023/02/23 06:47:59;;;;;;;23.85;2.60;;;3.30;99.90;;;;;;6217249;23;20007;-91
2023/02/23 06:50:26;;;;;;;16.67;2.13;;;3.30;99.90;;;;;;6217214;23;20008;-92
2023/02/23 06:52:51;;;;;;;11.07;1.88;;;3.30;99.90;;;;;;6217009;23;20428;-91
2023/02/23 06:55:17;;;;;;;16.55;1.80;;;3.20;99.90;;;;;;6216893;23;20000;-91
2023/02/23 06:57:43;;;;;;;17.52;3.03;;;3.20;99.90;;;;;;6216997;23;20008;-91
2023/02/23 07:00:13;;;;;;;16.10;2.25;;;3.20;99.90;;;;;;6216537;23;20502;-91
2023/02/23 07:02:40;;;;;;;17.30;2.25;;;3.20;99.90;;;;;;6216308;23;20040;-89
2023/02/23 07:05:05;;;;;;;19.65;1.98;;;3.20;99.90;;;;;;6216415;23;20012;-91
2023/02/23 07:07:31;;;;;;;17.15;2.17;;;3.20;99.90;;;;;;6217451;23;20011;-90
2023/02/23 07:09:57;;;;;;;12.25;2.30;;;3.30;99.90;;;;;;6216500;23;20011;-90
2023/02/23 07:12:23;;;;;;;10.30;2.00;;;3.30;99.90;;;;;;6216837;23;20012;-92
2023/02/23 07:14:48;;;;;;;15.15;2.42;;;3.30;99.90;;;;;;6218863;23;20019;-91
2023/02/23 07:17:14;;;;;;;20.38;2.67;;;3.30;99.90;;;;;;6218729;23;20007;-92
2023/02/23 07:19:40;;;;;;;13.05;1.90;;;3.30;99.90;;;;;;6218591;23;20335;-92
2023/02/23 07:22:05;;;;;;;9.45;1.98;;;3.30;99.90;;;;;;6219062;23;20050;-91
2023/02/23 07:24:31;;;;;;;8.20;1.50;;;3.20;99.90;;;;;;6219109;23;20023;-87
2023/02/23 07:26:57;;;;;;;12.43;1.92;;;3.20;99.90;;;;;;6221236;23;20034;-89
2023/02/23 07:29:23;;;;;;;15.10;2.78;;;3.20;99.90;;;;;;6218898;23;20015;-90
2023/02/23 07:31:48;;;;;;;11.75;1.98;;;3.20;99.90;;;;;;6218325;23;20069;-90
2023/02/23 07:34:15;;;;;;;21.00;2.20;;;3.20;99.90;;;;;;6219081;23;20004;-90
2023/02/23 07:36:40;;;;;;;14.02;3.00;;;3.20;99.90;;;;;;6219206;23;20082;-90
2023/02/23 07:39:06;;;;;;;9.05;1.88;;;3.20;99.90;;;;;;6219508;23;20448;-90
2023/02/23 07:41:32;;;;;;;15.25;2.60;;;3.20;99.90;;;;;;6218986;23;20507;-90
2023/02/23 07:43:58;;;;;;;20.85;2.22;;;3.10;99.90;;;;;;6218634;23;20351;-90
2023/02/23 07:46:25;;;;;;;13.80;2.40;;;3.20;99.90;;;;;;6219155;23;20004;-90
2023/02/23 07:48:51;;;;;;;13.93;2.92;;;3.20;99.90;;;;;;6219737;23;20043;-92
2023/02/23 07:51:17;;;;;;;15.05;2.25;;;3.10;99.90;;;;;;6222185;23;20000;-90
2023/02/23 07:53:43;;;;;;;13.43;2.20;;;3.20;99.90;;;;;;6219189;23;20091;-91
2023/02/23 07:56:10;;;;;;;12.75;2.40;;;3.20;99.90;;;;;;6217792;23;20062;-90
2023/02/23 07:58:38;;;;;;;12.25;2.05;;;3.20;99.90;;;;;;6219328;23;20012;-90
2023/02/23 08:01:04;;;;;;;12.48;2.00;;;3.20;99.90;;;;;;6218281;23;20010;-91
2023/02/23 08:03:30;;;;;;;11.70;1.88;;;3.20;99.90;;;;;;6245518;23;20022;-89
2023/02/23 08:05:56;;;;;;;15.18;2.58;;;3.10;99.90;;;;;;6219487;23;20083;-91
2023/02/23 08:08:22;;;;;;;13.30;2.60;;;3.20;99.90;;;;;;6227849;23;20008;-91
2023/02/23 08:10:47;;;;;;;15.82;1.77;;;3.10;99.90;;;;;;6227874;23;20420;-89
2023/02/23 08:13:14;;;;;;;8.30;2.53;;;3.20;99.90;;;;;;6227759;23;20015;-89
2023/02/23 08:15:41;;;;;;;11.32;1.60;;;3.20;99.90;;;;;;6215552;23;20232;-89
2023/02/23 08:18:06;;;;;;;21.27;2.08;;;3.20;99.90;;;;;;6217815;23;20028;-89
2023/02/23 08:20:32;;;;;;;13.10;1.98;;;3.20;99.90;;;;;;6219648;23;20007;-88
2023/02/23 08:22:58;;;;;;;15.55;1.65;;;3.20;99.90;;;;;;6218046;23;20019;-88
2023/02/23 08:25:26;;;;;;;10.77;1.70;;;3.30;99.90;;;;;;6218609;23;20427;-89
2023/02/23 08:27:52;;;;;;;13.65;1.67;;;3.30;99.90;;;;;;6218664;23;20091;-90
2023/02/23 08:30:21;;;;;;;8.70;1.65;;;3.40;99.90;;;;;;6218425;23;20004;-89
2023/02/23 08:32:47;;;;;;;14.32;1.70;;;3.40;99.90;;;;;;6217678;23;20011;-89
2023/02/23 08:35:14;;;;;;;12.15;1.60;;;3.50;99.90;;;;;;6218296;23;20014;-90
2023/02/23 08:37:40;;;;;;;9.75;1.58;;;3.50;99.90;;;;;;6218760;23;20502;-88
2023/02/23 08:40:07;;;;;;;17.50;1.60;;;3.50;99.90;;;;;;6244419;23;20008;-90
2023/02/23 08:42:33;;;;;;;9.43;1.45;;;3.50;99.90;;;;;;6219945;23;20023;-91
2023/02/23 08:45:00;;;;;;;11.13;2.03;;;3.60;99.90;;;;;;6220408;23;20012;-90
2023/02/23 08:47:26;;;;;;;7.25;1.30;;;3.60;99.90;;;;;;6219458;23;20440;-89
2023/02/23 08:49:53;;;;;;;8.98;2.08;;;3.70;99.90;;;;;;6220423;23;20114;-89
2023/02/23 08:52:19;;;;;;;11.18;2.40;;;3.70;99.90;;;;;;6248985;23;19992;-89
2023/02/23 08:54:45;;;;;;;16.35;1.95;;;3.70;99.90;;;;;;6220075;23;20090;-90
2023/02/23 08:57:11;;;;;;;16.17;1.90;;;3.80;99.90;;;;;;6219781;23;20007;-88
2023/02/23 08:59:38;;;;;;;14.60;1.70;;;3.80;99.90;;;;;;6216789;23;20012;-90
2023/02/23 09:02:04;;;;;;;14.77;1.60;;;3.90;99.90;;;;;;6219219;23;20035;-92
2023/02/23 09:04:34;;;;;;;11.48;1.60;;;3.90;99.90;;;;;;6215752;23;20027;-87
2023/02/23 09:07:01;;;;;;;15.85;1.50;;;4.00;99.90;;;;;;6221182;23;20027;-91
2023/02/23 09:09:26;;;;;;;11.98;2.15;;;4.00;99.90;;;;;;6226713;23;20010;-90
2023/02/23 09:11:52;;;;;;;13.20;2.70;;;4.10;99.90;;;;;;6223927;23;20142;-90
2023/02/23 09:14:18;;;;;;;12.75;1.50;;;4.10;99.90;;;;;;6223485;23;20495;-89
2023/02/23 09:16:44;;;;;;;17.77;2.50;;;4.20;99.90;;;;;;6228445;23;20068;-90
2023/02/23 09:19:10;;;;;;;9.52;1.58;;;4.30;99.90;;;;;;6231993;23;20012;-88
2023/02/23 09:21:36;;;;;;;13.30;1.75;;;4.30;99.90;;;;;;6219178;23;20436;-90
2023/02/23 09:24:02;;;;;;;12.20;1.70;;;4.40;99.90;;;;;;6219255;23;20023;-90
2023/02/23 09:26:28;;;;;;;5.78;1.65;;;4.50;99.90;;;;;;6219159;23;20012;-90
2023/02/23 09:28:55;;;;;;;25.33;4.22;;;4.60;99.90;;;;;;6218865;23;20011;-88
2023/02/23 09:31:22;;;;;;;13.13;1.40;;;4.60;99.90;;;;;;6219150;23;20004;-90
2023/02/23 09:33:48;;;;;;;12.10;1.80;;;4.70;99.90;;;;;;6218930;23;20004;-90
2023/02/23 09:36:20;;;;;;;12.85;2.00;;;4.80;99.90;;;;;;6218167;23;20009;-92
2023/02/23 09:38:48;;;;;;;7.55;2.03;;;4.90;99.90;;;;;;6218971;23;20004;-89
2023/02/23 09:41:44;;;;;;;9.13;1.50;;;5.00;99.90;;;;;;6218983;23;20004;-90
2023/02/23 09:44:53;;;;;;;11.10;1.45;;;5.10;99.90;;;;;;6219215;23;20019;-91
2023/02/23 09:47:44;;;;;;;16.08;1.65;;;5.20;99.90;;;;;;6227694;23;20009;-90
2023/02/23 09:50:27;;;;;;;10.63;1.70;;;5.30;99.90;;;;;;6218892;23;20018;-91
2023/02/23 09:53:02;;;;;;;12.32;1.60;;;5.40;99.90;;;;;;6218217;23;20435;-91
2023/02/23 09:55:29;;;;;;;9.23;1.23;;;5.50;99.90;;;;;;6218728;23;20004;-91
2023/02/23 09:57:56;;;;;;;11.20;2.05;;;5.70;99.90;;;;;;6218690;23;20004;-91
2023/02/23 10:00:26;;;;;;;11.60;1.40;;;5.90;99.90;;;;;;6218988;23;20075;-90
2023/02/23 10:03:07;;;;;;;12.98;1.67;;;6.20;99.90;;;;;;6218382;23;20087;-90
2023/02/23 10:05:42;;;;;;;10.77;1.10;;;6.50;99.90;;;;;;6219193;23;20015;-92
2023/02/23 10:08:21;;;;;;;11.88;1.90;;;6.60;99.90;;;;;;6219060;23;20356;-91
2023/02/23 10:11:10;;;;;;;7.78;1.48;;;6.50;99.90;;;;;;6213770;23;20016;-91
2023/02/23 10:14:14;;;;;;;8.68;1.23;;;6.50;99.90;;;;;;6197627;23;20083;-91
2023/02/23 10:17:21;;;;;;;13.35;1.60;;;6.40;99.90;;;;;;6195949;23;20012;-91
2023/02/23 10:20:29;;;;;;;16.05;1.67;;;6.30;99.90;;;;;;6213910;23;20001;-91
2023/02/23 10:23:01;;;;;;;9.30;1.40;;;6.20;99.90;;;;;;6213358;23;20016;-89
2023/02/23 10:25:30;;;;;;;7.38;1.65;;;6.20;99.90;;;;;;6214005;23;20012;-90
2023/02/23 10:27:58;;;;;;;7.38;1.40;;;6.10;99.90;;;;;;6213551;23;20015;-90
2023/02/23 10:30:30;;;;;;;11.95;1.48;;;6.00;99.90;;;;;;6213243;23;20008;-90
2023/02/23 10:33:24;;;;;;;13.40;1.38;;;6.00;99.90;;;;;;6213419;23;20524;-90
2023/02/23 10:35:56;;;;;;;14.32;1.50;;;6.00;99.90;;;;;;6213659;23;20019;-90
2023/02/23 10:38:22;;;;;;;12.50;1.80;;;6.00;99.90;;;;;;6215214;23;20428;-91
2023/02/23 10:40:55;;;;;;;13.70;1.90;;;6.10;99.90;;;;;;6216067;23;20059;-91
2023/02/23 10:43:21;;;;;;;14.95;1.80;;;6.10;99.90;;;;;;6214309;23;20012;-91
2023/02/23 10:45:49;;;;;;;12.90;2.08;;;6.10;99.90;;;;;;6214048;23;20036;-91
2023/02/23 10:48:23;;;;;;;18.08;1.95;;;6.10;99.90;;;;;;6214659;23;20079;-91
2023/02/23 10:50:51;;;;;;;9.43;1.30;;;6.10;99.90;;;;;;6215730;23;20009;-92
2023/02/23 10:53:23;;;;;;;16.65;2.10;;;6.20;99.90;;;;;;6215579;23;20475;-91
2023/02/23 10:56:06;;;;;;;6.75;1.58;;;6.30;99.90;;;;;;6215559;23;20449;-90
2023/02/23 10:58:45;;;;;;;9.18;2.35;;;6.40;99.90;;;;;;6215769;23;20473;-91
2023/02/23 11:01:11;;;;;;;6.47;1.40;;;6.70;99.90;;;;;;6215966;23;20087;-90
2023/02/23 11:03:49;;;;;;;15.02;1.40;;;6.90;99.90;;;;;;6216035;23;20016;-91
2023/02/23 11:06:34;;;;;;;10.95;1.60;;;6.90;99.90;;;;;;6215983;23;20070;-91
2023/02/23 11:09:15;;;;;;;11.18;1.58;;;7.00;99.90;;;;;;6217203;23;20055;-91
2023/02/23 11:12:06;;;;;;;12.20;2.08;;;7.10;99.90;;;;;;6224837;23;20020;-92
2023/02/23 11:14:32;;;;;;;6.45;2.08;;;7.20;99.90;;;;;;6222677;23;20004;-92
2023/02/23 11:16:59;;;;;;;8.88;1.33;;;7.40;99.90;;;;;;6215917;23;20007;-93
2023/02/23 11:19:40;;;;;;;15.70;1.50;;;7.50;99.90;;;;;;6216098;23;20448;-91
2023/02/23 11:22:06;;;;;;;;;;;7.50;99.90;;;;;;6216472;23;20035;-92
2023/02/23 11:24:39;;;;;;;12.63;3.22;;;7.50;99.90;;;;;;6215863;23;19915;-92
2023/02/23 11:27:18;;;;;;;11.88;1.83;;;7.40;99.90;;;;;;6216396;23;20439;-92
2023/02/23 11:29:46;;;;;;;11.05;1.50;;;7.30;99.90;;;;;;6216394;23;20004;-90
2023/02/23 11:32:26;;;;;;;12.98;2.33;;;7.40;99.90;;;;;;6216655;23;20001;-91
2023/02/23 11:35:19;;;;;;;9.40;2.40;;;7.50;99.90;;;;;;6216356;23;20031;-93
2023/02/23 11:37:46;;;;;;;9.23;1.42;;;7.50;99.90;;;;;;6215191;23;20079;-92
2023/02/23 11:40:26;;;;;;;10.82;1.60;;;7.80;99.90;;;;;;6215560;23;20005;-90
2023/02/23 11:43:06;;;;;;;15.20;1.67;;;8.30;99.90;;;;;;6215281;23;20075;-91
2023/02/23 11:45:53;;;;;;;5.53;1.00;;;8.60;99.90;;;;;;6216018;23;20004;-92
2023/02/23 11:48:52;;;;;;;8.57;2.20;;;8.90;99.90;;;;;;6214749;23;20004;-91
2023/02/23 11:51:40;;;;;;;6.15;1.40;;;9.30;99.90;;;;;;6214749;23;20032;-92
2023/02/23 11:54:15;;;;;;;12.75;1.65;;;9.90;99.90;;;;;;6217381;23;20008;-93
2023/02/23 11:56:53;;;;;;;8.82;1.25;;;10.10;99.90;;;;;;6215768;23;20035;-92
2023/02/23 11:59:27;;;;;;;8.95;1.60;;;10.00;99.90;;;;;;6215911;23;20005;-93
2023/02/23 12:01:55;;;;;;;16.02;3.53;;;9.70;99.90;;;;;;6217126;23;20005;-92
2023/02/23 12:04:30;;;;;;;10.68;1.70;;;9.30;99.90;;;;;;6214857;23;20012;-92
2023/02/23 12:07:40;;;;;;;5.40;1.50;;;9.10;99.90;;;;;;6215032;23;20022;-89
2023/02/23 12:10:12;;;;;;;5.93;1.50;;;9.40;99.90;;;;;;6215238;23;20032;-91
2023/02/23 12:13:01;;;;;;;9.23;1.20;;;10.00;99.90;;;;;;6219801;23;20062;-93
2023/02/23 12:15:43;;;;;;;4.07;1.20;;;10.40;99.20;;;;;;6220332;23;20016;-93
2023/02/23 12:18:23;;;;;;;7.30;1.17;;;10.70;97.40;;;;;;6246598;23;19996;-93
2023/02/23 12:20:53;;;;;;;6.57;0.90;;;11.20;96.40;;;;;;6220457;23;20081;-89
2023/02/23 12:23:25;;;;;;;7.22;1.13;;;11.50;95.10;;;;;;6220211;23;20046;-91
2023/02/23 12:25:55;;;;;;;8.88;1.48;;;11.60;93.50;;;;;;6220776;23;20000;-92
2023/02/23 12:28:51;;;;;;;11.40;1.48;;;11.90;92.80;;;;;;6220858;23;20031;-92
2023/02/23 12:31:42;;;;;;;6.55;1.20;;;12.20;91.40;;;;;;6224379;23;20010;-92
2023/02/23 12:34:27;;;;;;;7.40;1.52;;;12.40;90.10;;;;;;6221558;23;20004;-92
2023/02/23 12:37:06;;;;;;;5.07;0.85;;;12.50;87.50;;;;;;6220896;23;20005;-91
2023/02/23 12:39:39;;;;;;;9.05;1.75;;;12.30;85.80;;;;;;6246662;23;20007;-91
2023/02/23 12:42:21;;;;;;;5.03;1.30;;;12.30;85.70;;;;;;6219227;23;20086;-91
2023/02/23 12:45:00;;;;;;;7.57;1.42;;;12.50;85.50;;;;;;6245566;23;20012;-93
2023/02/23 12:47:45;;;;;;;5.00;1.00;;;12.60;84.50;;;;;;6219143;23;20496;-92
2023/02/23 12:50:42;;;;;;;3.63;0.90;;;12.60;83.10;;;;;;6220404;23;20091;-92
2023/02/23 12:53:32;;;;;;;7.38;1.05;;;12.70;81.70;;;;;;6219399;23;20008;-91
2023/02/23 12:56:35;;;;;;;5.15;1.30;;;13.00;80.90;;;;;;6219839;23;20000;-92
2023/02/23 12:59:05;;;;;;;4.55;0.82;;;13.20;78.40;;;;;;6219645;23;20026;-92
2023/02/23 13:01:40;;;;;;;6.32;1.05;;;13.50;77.60;;;;;;6219701;23;20004;-92
2023/02/23 13:04:42;;;;;;;5.75;0.70;;;13.80;76.60;;;;;;6219470;23;20023;-91
2023/02/23 13:07:40;;;;;;;6.15;0.90;;;13.90;74.80;;;;;;6219398;23;20008;-93
2023/02/23 13:10:40;;;;;;;6.65;0.98;;;14.10;74.00;;;;;;6220775;23;20011;-92
2023/02/23 13:13:29;;;;;;;5.05;1.35;;;14.50;72.90;;;;;;6219269;23;20070;-91
2023/02/23 13:15:58;;;;;;;6.47;1.10;;;14.90;71.00;;;;;;6220038;23;20086;-91
2023/02/23 13:18:43;;;;;;;;;;;15.10;69.80;;;;;;6220255;23;20398;-92
2023/02/23 13:21:27;;;;;;;3.50;1.00;;;14.90;68.60;;;;;;6219260;23;19899;-92
2023/02/23 13:24:11;;;;;;;5.05;1.10;;;14.70;68.10;;;;;;6219463;23;20024;-92
2023/02/23 13:26:59;;;;;;;3.42;1.25;;;14.50;67.90;;;;;;6219880;23;20091;-91
2023/02/23 13:29:24;;;;;;;4.63;1.50;;;14.40;67.90;;;;;;6220064;23;20019;-93
2023/02/23 13:31:51;;;;;;;7.45;1.98;;;14.60;67.80;;;;;;6246133;23;20000;-91
2023/02/23 13:34:55;;;;;;;7.00;1.27;;;14.90;67.70;;;;;;6219774;23;20036;-92
2023/02/23 13:37:26;;;;;;;4.30;0.88;;;15.00;66.10;;;;;;6219649;23;20063;-91
2023/02/23 13:40:28;;;;;;;4.78;1.42;;;15.10;65.10;;;;;;6219862;23;20027;-92
2023/02/23 13:43:28;;;;;;;2.20;0.98;;;15.10;64.20;;;;;;6174448;23;20059;-91
2023/02/23 13:46:13;;;;;;;4.57;1.10;;;15.30;63.60;;;;;;6219235;23;20008;-92
2023/02/23 13:48:53;;;;;;;2.70;0.65;;;15.50;63.00;;;;;;6219514;23;20262;-93
2023/02/23 13:51:53;;;;;;;3.10;1.25;;;15.60;62.70;;;;;;6218951;23;20004;-92
2023/02/23 13:54:29;;;;;;;5.78;1.20;;;15.60;62.20;;;;;;6246747;23;20026;-93
2023/02/23 13:57:00;;;;;;;3.17;0.70;;;15.60;62.00;;;;;;6220171;23;20078;-91
2023/02/23 13:59:37;;;;;;;4.13;0.90;;;15.70;60.90;;;;;;6219717;23;20340;-92
2023/02/23 14:02:29;;;;;;;3.33;0.82;;;15.50;59.00;;;;;;6244445;23;20000;-94
2023/02/23 14:05:24;;;;;;;4.63;0.60;;;15.40;58.30;;;;;;6219767;23;20022;-92
2023/02/23 14:07:56;;;;;;;4.90;0.80;;;15.60;57.90;;;;;;6247168;23;20004;-92
2023/02/23 14:10:27;;;;;;;7.30;1.13;;;15.60;57.40;;;;;;6220332;23;20099;-92
2023/02/23 14:13:11;;;;;;;;;;;15.70;57.60;;;;;;6221919;23;20015;-93
2023/02/23 14:15:36;;;;;;;4.88;1.00;;;15.70;57.40;;;;;;6232364;23;19899;-92
2023/02/23 14:18:17;;;;;;;5.57;0.95;;;15.90;57.30;;;;;;6261234;23;20031;-90
2023/02/23 14:21:11;;;;;;;3.53;0.80;;;16.00;56.60;;;;;;6224501;23;20008;-93
2023/02/23 14:24:02;;;;;;;5.20;0.90;;;16.00;56.00;;;;;;6220286;23;20069;-94
2023/02/23 14:26:27;;;;;;;;;;;16.10;55.10;;;;;;6221505;23;20102;-93
2023/02/23 14:29:18;;;;;;;5.70;0.60;;;16.00;54.50;;;;;;6220041;23;20315;-92
2023/02/23 14:32:02;;;;;;;4.85;1.00;;;16.00;54.70;;;;;;6219704;23;20058;-93
2023/02/23 14:34:49;;;;;;;3.42;0.85;;;16.00;54.90;;;;;;6220620;23;20032;-93
2023/02/23 14:37:25;;;;;;;7.60;1.23;;;15.80;55.00;;;;;;6222172;23;20012;-93
2023/02/23 14:39:55;;;;;;;3.67;1.08;;;15.80;55.30;;;;;;6220693;23;20394;-92